createdAt,value
2022-10-14T00:00:17.030Z,99.34
2022-10-14T00:01:17.024Z,98.58
2022-10-14T00:02:17.089Z,98.27
2022-10-14T00:03:17.001Z,98.48
2022-10-14T00:04:17.007Z,98.79
2022-10-14T00:05:16.987Z,98.79
2022-10-14T00:06:17.745Z,98.73
2022-10-14T00:07:16.985Z,98.58
2022-10-14T00:08:16.978Z,98.58
2022-10-14T00:09:16.967Z,98.58
2022-10-14T00:10:16.956Z,98.58
2022-10-14T00:11:16.957Z,98.68
2022-10-14T00:12:16.931Z,98.79
2022-10-14T00:13:16.925Z,98.38
2022-10-14T00:14:16.921Z,98.38
2022-10-14T00:15:16.907Z,98.89
2022-10-14T00:16:16.919Z,98.18
2022-10-14T00:17:16.896Z,98.07
2022-10-14T00:18:16.884Z,98.68
2022-10-14T00:19:16.874Z,98.38
2022-10-14T00:20:16.887Z,98.89
2022-10-14T00:21:16.875Z,98.58
2022-10-14T00:22:16.859Z,98.38
2022-10-14T00:23:16.853Z,98.38
2022-10-14T00:24:16.838Z,97.97
2022-10-14T00:25:16.850Z,98.23
2022-10-14T00:26:16.825Z,98.07
2022-10-14T00:27:16.818Z,98.48
2022-10-14T00:28:16.824Z,97.92
2022-10-14T00:30:16.510Z,98.02
2022-10-14T00:31:16.499Z,97.72
2022-10-14T00:32:16.499Z,98.18
2022-10-14T00:33:16.485Z,97.82
2022-10-14T00:34:16.474Z,97.52
2022-10-14T00:35:16.476Z,97.52
2022-10-14T00:36:16.457Z,97.52
2022-10-14T00:37:16.460Z,97.72
2022-10-14T00:38:16.440Z,97.82
2022-10-14T00:39:16.435Z,97.62
2022-10-14T00:40:16.426Z,97.62
2022-10-14T00:41:17.520Z,97.82
2022-10-14T00:42:17.508Z,97.87
2022-10-14T00:43:17.494Z,97.92
2022-10-14T00:44:17.488Z,97.92
2022-10-14T00:45:17.478Z,98.02
2022-10-14T00:46:17.480Z,97.82
2022-10-14T00:47:17.469Z,97.82
2022-10-14T00:48:17.451Z,97.92
2022-10-14T00:49:17.448Z,97.52
2022-10-14T00:50:17.452Z,97.52
2022-10-14T00:51:17.435Z,97.82
2022-10-14T00:52:17.419Z,97.62
2022-10-14T00:53:17.425Z,97.52
2022-10-14T00:54:17.407Z,97.77
2022-10-14T00:55:17.400Z,97.97
2022-10-14T00:56:17.392Z,98.07
2022-10-14T00:57:17.383Z,98.07
2022-10-14T00:58:17.386Z,98.38
2022-10-14T00:59:17.365Z,98.68
2022-10-14T01:00:17.383Z,98.58
2022-10-14T01:01:17.442Z,98.48
2022-10-14T01:02:17.347Z,98.07
2022-10-14T01:03:17.333Z,98.32
2022-10-14T01:04:17.327Z,98.18
2022-10-14T01:05:17.315Z,98.27
2022-10-14T01:06:17.313Z,98.58
2022-10-14T01:07:17.306Z,98.73
2022-10-14T01:08:17.297Z,98.73
2022-10-14T01:09:17.298Z,98.83
2022-10-14T01:10:17.285Z,99.04
2022-10-14T01:11:17.271Z,99.04
2022-10-14T01:12:28.600Z,99.14
2022-10-14T01:13:19.251Z,99.34
2022-10-14T01:14:17.487Z,98.32
2022-10-14T01:15:17.232Z,98.52
2022-10-14T01:16:17.234Z,98.43
2022-10-14T01:17:17.233Z,98.63
2022-10-14T01:18:17.206Z,98.68
2022-10-14T01:19:17.205Z,98.48
2022-10-14T01:20:17.187Z,98.73
2022-10-14T01:21:17.180Z,98.52
2022-10-14T01:22:22.064Z,98.48
2022-10-14T01:23:19.167Z,98.93
2022-10-14T01:24:17.154Z,98.68
2022-10-14T01:25:17.150Z,98.68
2022-10-14T01:26:17.979Z,98.07
2022-10-14T01:27:17.134Z,97.97
2022-10-14T01:28:17.149Z,98.58
2022-10-14T01:29:17.119Z,98.18
2022-10-14T01:30:17.117Z,98.18
2022-10-14T01:31:17.840Z,98.58
2022-10-14T01:32:17.090Z,98.43
2022-10-14T01:33:17.083Z,98.07
2022-10-14T01:34:17.078Z,98.07
2022-10-14T01:35:17.069Z,97.97
2022-10-14T01:36:17.057Z,98.58
2022-10-14T01:37:17.044Z,98.07
2022-10-14T01:38:17.059Z,98.27
2022-10-14T01:39:17.046Z,98.38
2022-10-14T01:40:17.882Z,98.22
2022-10-14T01:41:17.027Z,98.07
2022-10-14T01:42:17.005Z,98.22
2022-10-14T01:43:17.002Z,98.32
2022-10-14T01:44:16.995Z,98.07
2022-10-14T01:45:16.978Z,98.43
2022-10-14T01:46:16.993Z,98.43
2022-10-14T01:47:16.962Z,98.73
2022-10-14T01:48:16.956Z,98.58
2022-10-14T01:49:16.955Z,98.58
2022-10-14T01:50:16.935Z,98.58
2022-10-14T01:51:16.947Z,98.68
2022-10-14T01:52:16.923Z,98.07
2022-10-14T01:53:16.924Z,97.97
2022-10-14T01:54:16.928Z,98.07
2022-10-14T01:55:16.900Z,98.27
2022-10-14T01:56:16.915Z,97.87
2022-10-14T01:57:16.944Z,98.07
2022-10-14T01:58:16.877Z,97.97
2022-10-14T01:59:16.865Z,97.66
2022-10-14T02:00:16.853Z,98.18
2022-10-14T02:01:16.916Z,97.87
2022-10-14T02:02:16.847Z,98.22
2022-10-14T02:03:16.833Z,98.18
2022-10-14T02:04:16.827Z,98.07
2022-10-14T02:05:16.821Z,98.18
2022-10-14T02:06:16.811Z,98.18
2022-10-14T02:07:16.815Z,98.18
2022-10-14T02:08:16.797Z,97.77
2022-10-14T02:09:16.798Z,97.97
2022-10-14T02:10:16.783Z,97.97
2022-10-14T02:11:16.803Z,98.18
2022-10-14T02:12:17.395Z,97.87
2022-10-14T02:13:16.754Z,97.77
2022-10-14T02:14:16.746Z,98.07
2022-10-14T02:15:16.735Z,97.77
2022-10-14T02:16:16.740Z,97.62
2022-10-14T02:17:16.723Z,97.97
2022-10-14T02:18:16.718Z,97.56
2022-10-14T02:19:16.711Z,97.97
2022-10-14T02:20:16.721Z,97.77
2022-10-14T02:21:16.700Z,98.18
2022-10-14T02:22:16.687Z,98.63
2022-10-14T02:23:16.674Z,98.07
2022-10-14T02:24:16.664Z,98.32
2022-10-14T02:25:17.475Z,98.38
2022-10-14T02:26:16.653Z,98.48
2022-10-14T02:27:16.636Z,98.11
2022-10-14T02:28:16.690Z,98.18
2022-10-14T02:29:16.628Z,97.77
2022-10-14T02:30:16.619Z,97.77
2022-10-14T02:31:16.605Z,97.97
2022-10-14T02:32:17.476Z,98.32
2022-10-14T02:33:16.584Z,98.73
2022-10-14T02:34:17.483Z,98.83
2022-10-14T02:35:16.597Z,98.73
2022-10-14T02:36:16.562Z,98.52
2022-10-14T02:37:16.569Z,98.73
2022-10-14T02:38:16.547Z,99.04
2022-10-14T02:39:16.546Z,98.73
2022-10-14T02:40:16.536Z,98.52
2022-10-14T02:41:16.511Z,98.43
2022-10-14T02:42:17.510Z,98.63
2022-10-14T02:43:16.505Z,98.63
2022-10-14T02:44:16.495Z,98.63
2022-10-14T02:45:16.497Z,98.43
2022-10-14T02:46:16.478Z,98.32
2022-10-14T02:47:16.476Z,98.11
2022-10-14T02:48:16.471Z,98.22
2022-10-14T02:49:16.460Z,98.43
2022-10-14T02:50:16.466Z,98.73
2022-10-14T02:51:16.449Z,98.73
2022-10-14T02:52:16.440Z,98.58
2022-10-14T02:53:16.438Z,98.73
2022-10-14T02:54:16.415Z,98.38
2022-10-14T02:55:16.423Z,98.27
2022-10-14T02:56:16.395Z,98.68
2022-10-14T02:57:16.395Z,98.38
2022-10-14T02:58:16.394Z,98.38
2022-10-14T02:59:16.375Z,98.07
2022-10-14T03:00:16.501Z,97.87
2022-10-14T03:01:16.371Z,98.22
2022-10-14T03:02:16.420Z,98.07
2022-10-14T03:03:16.344Z,98.18
2022-10-14T03:04:16.332Z,97.97
2022-10-14T03:05:16.323Z,97.87
2022-10-14T03:06:16.313Z,98.07
2022-10-14T03:07:16.303Z,98.43
2022-10-14T03:08:16.310Z,98.58
2022-10-14T03:09:16.310Z,98.43
2022-10-14T03:10:16.293Z,98.63
2022-10-14T03:11:16.283Z,99.04
2022-10-14T03:12:16.265Z,99.04
2022-10-14T03:13:16.270Z,98.63
2022-10-14T03:14:16.259Z,98.18
2022-10-14T03:15:16.252Z,98.43
2022-10-14T03:16:16.239Z,98.48
2022-10-14T03:17:16.243Z,98.58
2022-10-14T03:18:16.222Z,98.07
2022-10-14T03:19:16.212Z,98.18
2022-10-14T03:20:16.199Z,98.38
2022-10-14T03:21:16.191Z,98.07
2022-10-14T03:22:16.184Z,98.38
2022-10-14T03:23:16.191Z,98.18
2022-10-14T03:24:16.168Z,98.22
2022-10-14T03:25:16.161Z,98.52
2022-10-14T03:26:16.161Z,98.83
2022-10-14T03:27:16.158Z,98.68
2022-10-14T03:28:16.164Z,98.27
2022-10-14T03:29:16.146Z,98.18
2022-10-14T03:30:16.134Z,98.58
2022-10-14T03:31:16.118Z,98.27
2022-10-14T03:32:16.119Z,97.97
2022-10-14T03:33:18.623Z,98.07
2022-10-14T03:34:16.106Z,98.58
2022-10-14T03:35:16.087Z,98.58
2022-10-14T03:36:16.084Z,98.58
2022-10-14T03:37:16.080Z,98.27
2022-10-14T03:38:16.060Z,97.97
2022-10-14T03:39:16.063Z,97.62
2022-10-14T03:40:16.060Z,97.72
2022-10-14T03:41:16.992Z,97.52
2022-10-14T03:42:16.030Z,97.62
2022-10-14T03:43:16.031Z,97.62
2022-10-14T03:44:16.020Z,97.82
2022-10-14T03:45:16.015Z,97.72
2022-10-14T03:46:15.997Z,97.52
2022-10-14T03:47:16.009Z,97.62
2022-10-14T03:48:15.992Z,97.41
2022-10-14T03:49:15.986Z,97.41
2022-10-14T03:50:15.973Z,97.72
2022-10-14T03:51:15.965Z,97.41
2022-10-14T03:52:15.964Z,97.52
2022-10-14T03:53:15.944Z,97.52
2022-10-14T03:54:16.032Z,97.62
2022-10-14T03:55:15.937Z,97.52
2022-10-14T03:56:15.928Z,97.52
2022-10-14T03:57:15.944Z,97.41
2022-10-14T03:58:15.911Z,97.27
2022-10-14T03:59:15.904Z,97.00
2022-10-14T04:00:15.896Z,97.31
2022-10-14T04:01:15.888Z,97.78
2022-10-14T04:02:15.873Z,97.78
2022-10-14T04:03:17.469Z,97.41
2022-10-14T04:04:15.871Z,97.37
2022-10-14T04:05:15.884Z,97.21
2022-10-14T04:06:15.843Z,97.27
2022-10-14T04:07:15.842Z,96.96
2022-10-14T04:08:15.846Z,96.86
2022-10-14T04:09:15.833Z,96.70
2022-10-14T04:10:15.828Z,96.66
2022-10-14T04:11:15.819Z,96.86
2022-10-14T04:12:15.807Z,97.00
2022-10-14T04:13:15.792Z,96.80
2022-10-14T04:14:15.790Z,96.96
2022-10-14T04:15:15.774Z,96.70
2022-10-14T04:16:15.764Z,96.86
2022-10-14T04:17:15.771Z,96.70
2022-10-14T04:18:15.751Z,97.00
2022-10-14T04:19:15.758Z,96.55
2022-10-14T04:20:15.767Z,96.80
2022-10-14T04:21:15.732Z,96.91
2022-10-14T04:22:15.720Z,96.96
2022-10-14T04:23:15.707Z,96.80
2022-10-14T04:24:15.710Z,96.80
2022-10-14T04:25:15.714Z,97.00
2022-10-14T04:26:15.698Z,97.00
2022-10-14T04:27:15.681Z,96.76
2022-10-14T04:28:15.733Z,96.60
2022-10-14T04:29:15.660Z,97.41
2022-10-14T04:30:15.661Z,97.31
2022-10-14T04:31:15.655Z,97.52
2022-10-14T04:32:15.634Z,97.52
2022-10-14T04:33:15.638Z,97.00
2022-10-14T04:34:15.638Z,97.52
2022-10-14T04:35:15.623Z,97.37
2022-10-14T04:36:15.601Z,96.96
2022-10-14T04:37:15.603Z,96.86
2022-10-14T04:38:17.505Z,96.96
2022-10-14T04:39:15.579Z,96.60
2022-10-14T04:40:15.593Z,97.11
2022-10-14T04:41:15.559Z,96.91
2022-10-14T04:42:15.549Z,97.41
2022-10-14T04:43:15.563Z,97.31
2022-10-14T04:44:15.538Z,97.52
2022-10-14T04:45:15.552Z,97.31
2022-10-14T04:46:15.554Z,97.31
2022-10-14T04:47:15.513Z,97.52
2022-10-14T04:48:15.513Z,97.62
2022-10-14T04:49:15.505Z,97.41
2022-10-14T04:50:15.553Z,97.62
2022-10-14T04:51:15.486Z,97.62
2022-10-14T04:52:15.481Z,97.82
2022-10-14T04:53:19.666Z,97.67
2022-10-14T04:54:16.462Z,97.52
2022-10-14T04:55:15.462Z,97.31
2022-10-14T04:56:16.441Z,97.21
2022-10-14T04:57:15.438Z,97.27
2022-10-14T04:58:15.422Z,97.31
2022-10-14T04:59:15.442Z,96.91
2022-10-14T05:00:15.420Z,96.91
2022-10-14T05:01:15.477Z,96.91
2022-10-14T05:02:15.506Z,96.91
2022-10-14T05:03:15.940Z,97.21
2022-10-14T05:04:15.378Z,97.31
2022-10-14T05:05:15.441Z,97.82
2022-10-14T05:06:15.369Z,97.41
2022-10-14T05:07:15.362Z,97.41
2022-10-14T05:08:15.367Z,97.21
2022-10-14T05:09:15.348Z,97.41
2022-10-14T05:10:15.348Z,97.41
2022-10-14T05:11:15.331Z,97.62
2022-10-14T05:12:15.308Z,97.82
2022-10-14T05:13:15.309Z,97.52
2022-10-14T05:14:15.300Z,97.82
2022-10-14T05:15:15.302Z,97.62
2022-10-14T05:16:15.295Z,97.41
2022-10-14T05:17:15.295Z,97.41
2022-10-14T05:18:15.278Z,97.41
2022-10-14T05:19:15.249Z,97.31
2022-10-14T05:20:15.261Z,96.60
2022-10-14T05:21:15.244Z,97.72
2022-10-14T05:22:15.226Z,97.72
2022-10-14T05:23:15.223Z,97.62
2022-10-14T05:24:15.214Z,97.72
2022-10-14T05:25:15.214Z,97.72
2022-10-14T05:26:15.213Z,97.41
2022-10-14T05:27:15.193Z,97.62
2022-10-14T05:28:15.262Z,96.70
2022-10-14T05:29:15.173Z,96.70
2022-10-14T05:30:15.182Z,97.82
2022-10-14T05:31:15.157Z,97.62
2022-10-14T05:32:15.171Z,97.41
2022-10-14T05:33:15.141Z,97.92
2022-10-14T05:34:15.132Z,97.72
2022-10-14T05:35:15.139Z,97.82
2022-10-14T05:36:15.122Z,97.62
2022-10-14T05:37:15.106Z,97.52
2022-10-14T05:38:15.116Z,97.72
2022-10-14T05:39:15.141Z,97.41
2022-10-14T05:40:15.088Z,97.52
2022-10-14T05:41:15.084Z,97.78
2022-10-14T05:42:15.057Z,97.88
2022-10-14T05:43:15.066Z,97.52
2022-10-14T05:44:15.050Z,97.27
2022-10-14T05:45:15.050Z,96.76
2022-10-14T05:46:15.039Z,96.66
2022-10-14T05:47:15.022Z,96.45
2022-10-14T05:48:16.038Z,95.84
2022-10-14T05:49:15.047Z,96.15
2022-10-14T05:50:15.030Z,95.94
2022-10-14T05:51:14.984Z,95.74
2022-10-14T05:52:14.983Z,95.94
2022-10-14T05:53:14.980Z,95.64
2022-10-14T05:54:14.965Z,96.35
2022-10-14T05:55:14.960Z,96.15
2022-10-14T05:56:14.950Z,96.15
2022-10-14T05:57:14.964Z,96.15
2022-10-14T05:58:14.943Z,96.04
2022-10-14T05:59:14.929Z,95.53
2022-10-14T06:00:14.940Z,95.53
2022-10-14T06:01:14.952Z,95.64
2022-10-14T06:02:14.940Z,95.23
2022-10-14T06:03:14.950Z,95.53
2022-10-14T06:04:14.923Z,95.13
2022-10-14T06:05:14.898Z,95.43
2022-10-14T06:06:14.863Z,95.64
2022-10-14T06:07:14.859Z,95.64
2022-10-14T06:08:14.884Z,95.53
2022-10-14T06:09:14.848Z,95.33
2022-10-14T06:10:14.855Z,95.43
2022-10-14T06:11:14.844Z,95.43
2022-10-14T06:12:14.832Z,95.64
2022-10-14T06:13:14.816Z,95.53
2022-10-14T06:14:14.803Z,95.49
2022-10-14T06:15:15.821Z,95.39
2022-10-14T06:16:14.794Z,94.78
2022-10-14T06:17:17.277Z,94.57
2022-10-14T06:18:14.768Z,94.57
2022-10-14T06:19:14.776Z,94.37
2022-10-14T06:20:14.746Z,94.47
2022-10-14T06:21:14.747Z,93.86
2022-10-14T06:22:14.755Z,93.86
2022-10-14T06:23:17.921Z,94.27
2022-10-14T06:24:15.831Z,94.17
2022-10-14T06:25:14.712Z,94.27
2022-10-14T06:26:14.711Z,94.37
2022-10-14T06:27:14.689Z,93.82
2022-10-14T06:28:14.778Z,93.82
2022-10-14T06:29:14.737Z,93.71
2022-10-14T06:30:14.671Z,93.51
2022-10-14T06:31:14.664Z,93.71
2022-10-14T06:32:14.649Z,92.60
2022-10-14T06:33:14.668Z,92.60
2022-10-14T06:34:14.639Z,93.92
2022-10-14T06:35:14.634Z,93.92
2022-10-14T06:36:14.641Z,92.45
2022-10-14T06:37:14.613Z,93.92
2022-10-14T06:38:14.614Z,94.12
2022-10-14T06:39:14.598Z,94.12
2022-10-14T06:40:14.582Z,94.12
2022-10-14T06:41:14.599Z,93.41
2022-10-14T06:42:15.563Z,93.82
2022-10-14T06:43:14.580Z,93.62
2022-10-14T06:44:14.550Z,93.82
2022-10-14T06:45:14.544Z,93.51
2022-10-14T06:46:14.547Z,93.41
2022-10-14T06:47:14.540Z,93.57
2022-10-14T06:48:14.516Z,93.51
2022-10-14T06:49:14.516Z,93.37
2022-10-14T06:50:14.513Z,93.37
2022-10-14T06:51:14.520Z,93.77
2022-10-14T06:52:15.944Z,93.37
2022-10-14T06:53:14.483Z,93.47
2022-10-14T06:54:15.489Z,93.47
2022-10-14T06:55:14.474Z,93.51
2022-10-14T06:56:14.457Z,93.67
2022-10-14T06:57:14.465Z,93.47
2022-10-14T06:58:14.444Z,93.26
2022-10-14T06:59:14.475Z,93.67
2022-10-14T07:00:14.426Z,93.37
2022-10-14T07:01:14.482Z,93.98
2022-10-14T07:02:14.461Z,93.62
2022-10-14T07:03:14.408Z,93.47
2022-10-14T07:04:14.405Z,93.77
2022-10-14T07:05:14.388Z,93.77
2022-10-14T07:06:14.382Z,93.67
2022-10-14T07:07:14.374Z,93.47
2022-10-14T07:08:15.584Z,93.22
2022-10-14T07:09:15.361Z,93.06
2022-10-14T07:10:14.336Z,93.06
2022-10-14T07:11:14.350Z,94.04
2022-10-14T07:12:14.323Z,94.04
2022-10-14T07:13:14.324Z,93.26
2022-10-14T07:14:14.386Z,93.26
2022-10-14T07:15:14.308Z,93.87
2022-10-14T07:16:14.305Z,93.83
2022-10-14T07:17:14.331Z,93.16
2022-10-14T07:18:14.347Z,92.82
2022-10-14T07:19:14.274Z,93.32
2022-10-14T07:20:14.268Z,92.61
2022-10-14T07:21:14.257Z,93.02
2022-10-14T07:22:14.982Z,92.41
2022-10-14T07:23:14.247Z,92.71
2022-10-14T07:24:15.092Z,92.30
2022-10-14T07:25:14.225Z,92.36
2022-10-14T07:26:14.231Z,92.41
2022-10-14T07:27:14.223Z,92.00
2022-10-14T07:28:14.308Z,92.26
2022-10-14T07:29:14.202Z,92.21
2022-10-14T07:30:16.779Z,92.06
2022-10-14T07:31:14.176Z,92.36
2022-10-14T07:32:14.168Z,92.06
2022-10-14T07:33:14.186Z,92.21
2022-10-14T07:34:14.160Z,92.26
2022-10-14T07:35:14.141Z,91.96
2022-10-14T07:36:16.082Z,91.65
2022-10-14T07:37:14.130Z,91.69
2022-10-14T07:38:14.136Z,92.30
2022-10-14T07:39:14.116Z,93.83
2022-10-14T07:40:14.114Z,93.43
2022-10-14T07:41:15.059Z,94.04
2022-10-14T07:42:14.114Z,93.02
2022-10-14T07:43:14.092Z,92.91
2022-10-14T07:44:14.989Z,93.32
2022-10-14T07:45:14.060Z,93.93
2022-10-14T07:46:14.577Z,93.93
2022-10-14T07:47:14.054Z,93.12
2022-10-14T07:48:17.051Z,93.02
2022-10-14T07:49:15.031Z,92.51
2022-10-14T07:50:14.030Z,92.77
2022-10-14T07:51:14.017Z,92.61
2022-10-14T07:52:14.007Z,92.71
2022-10-14T07:53:14.002Z,92.51
2022-10-14T07:54:13.991Z,93.02
2022-10-14T07:55:13.981Z,92.77
2022-10-14T07:56:13.981Z,92.36
2022-10-14T07:57:13.971Z,92.57
2022-10-14T07:58:13.969Z,92.47
2022-10-14T07:59:14.488Z,92.57
2022-10-14T08:00:13.948Z,91.86
2022-10-14T08:01:13.976Z,92.02
2022-10-14T08:02:13.940Z,92.02
2022-10-14T08:03:13.935Z,91.61
2022-10-14T08:04:13.939Z,91.51
2022-10-14T08:05:36.657Z,91.47
2022-10-14T08:06:15.895Z,91.00
2022-10-14T08:07:13.895Z,91.26
2022-10-14T08:08:13.890Z,91.26
2022-10-14T08:09:13.957Z,91.06
2022-10-14T08:10:13.872Z,91.36
2022-10-14T08:11:13.857Z,90.55
2022-10-14T08:12:13.845Z,90.25
2022-10-14T08:13:13.875Z,89.80
2022-10-14T08:14:13.847Z,89.59
2022-10-14T08:15:13.825Z,89.59
2022-10-14T08:16:13.822Z,89.29
2022-10-14T08:17:13.804Z,89.25
2022-10-14T08:18:13.804Z,88.95
2022-10-14T08:19:14.923Z,88.54
2022-10-14T08:20:14.859Z,88.64
2022-10-14T08:21:14.592Z,88.75
2022-10-14T08:22:13.773Z,87.69
2022-10-14T08:23:17.445Z,87.28
2022-10-14T08:24:15.842Z,87.28
2022-10-14T08:25:13.770Z,87.38
2022-10-14T08:26:13.724Z,87.28
2022-10-14T08:27:13.719Z,87.04
2022-10-14T08:28:13.713Z,86.63
2022-10-14T08:29:13.746Z,87.04
2022-10-14T08:30:13.710Z,85.93
2022-10-14T08:31:13.702Z,86.13
2022-10-14T08:32:13.729Z,85.72
2022-10-14T08:33:13.689Z,86.19
2022-10-14T08:34:13.668Z,85.88
2022-10-14T08:35:13.718Z,85.82
2022-10-14T08:36:14.110Z,86.02
2022-10-14T08:37:13.658Z,85.88
2022-10-14T08:38:14.583Z,85.78
2022-10-14T08:39:13.638Z,86.19
2022-10-14T08:40:13.632Z,85.78
2022-10-14T08:41:13.616Z,85.78
2022-10-14T08:42:13.618Z,85.68
2022-10-14T08:43:13.598Z,85.99
2022-10-14T08:44:13.596Z,85.78
2022-10-14T08:45:13.597Z,85.99
2022-10-14T08:46:13.679Z,85.88
2022-10-14T08:47:13.562Z,85.68
2022-10-14T08:48:13.577Z,85.99
2022-10-14T08:49:13.558Z,86.39
2022-10-14T08:50:13.547Z,85.99
2022-10-14T08:51:13.546Z,85.99
2022-10-14T08:52:13.529Z,85.99
2022-10-14T08:53:13.510Z,86.05
2022-10-14T08:54:13.528Z,86.19
2022-10-14T08:55:13.494Z,87.05
2022-10-14T08:56:14.562Z,87.00
2022-10-14T08:57:13.491Z,86.79
2022-10-14T08:58:13.609Z,86.90
2022-10-14T08:59:13.463Z,86.73
2022-10-14T09:00:13.519Z,86.94
2022-10-14T09:01:13.671Z,87.24
2022-10-14T09:02:13.456Z,87.10
2022-10-14T09:03:13.446Z,86.83
2022-10-14T09:04:13.517Z,86.83
2022-10-14T09:05:13.470Z,86.53
2022-10-14T09:06:13.405Z,86.90
2022-10-14T09:07:13.403Z,86.33
2022-10-14T09:08:13.387Z,86.29
2022-10-14T09:09:13.384Z,85.99
2022-10-14T09:10:14.016Z,85.99
2022-10-14T09:11:13.373Z,85.64
2022-10-14T09:12:13.365Z,85.68
2022-10-14T09:13:13.347Z,85.24
2022-10-14T09:14:13.341Z,85.74
2022-10-14T09:15:13.971Z,84.77
2022-10-14T09:16:13.326Z,84.97
2022-10-14T09:18:13.330Z,85.48
2022-10-14T09:19:13.310Z,85.17
2022-10-14T09:20:13.300Z,85.38
2022-10-14T09:21:22.730Z,85.78
2022-10-14T09:22:15.420Z,85.68
2022-10-14T09:23:13.268Z,85.38
2022-10-14T09:24:13.271Z,85.68
2022-10-14T09:25:13.325Z,85.68
2022-10-14T09:26:13.252Z,84.93
2022-10-14T09:27:16.090Z,84.59
2022-10-14T09:28:13.237Z,83.58
2022-10-14T09:29:13.229Z,84.08
2022-10-14T09:30:13.241Z,83.47
2022-10-14T09:31:13.215Z,83.47
2022-10-14T09:32:13.242Z,83.78
2022-10-14T09:33:13.223Z,82.93
2022-10-14T09:34:13.205Z,83.37
2022-10-14T09:35:13.196Z,84.19
2022-10-14T09:36:13.179Z,83.58
2022-10-14T09:37:13.254Z,84.19
2022-10-14T09:38:13.167Z,84.08
2022-10-14T09:39:13.159Z,83.78
2022-10-14T09:40:13.139Z,84.28
2022-10-14T09:41:13.144Z,83.68
2022-10-14T09:42:13.128Z,84.19
2022-10-14T09:43:13.113Z,83.92
2022-10-14T09:44:13.098Z,84.28
2022-10-14T09:45:13.332Z,83.27
2022-10-14T09:46:20.187Z,83.17
2022-10-14T09:47:13.225Z,83.23
2022-10-14T09:49:19.847Z,82.93
2022-10-14T09:50:19.889Z,83.33
2022-10-14T09:51:20.917Z,83.64
2022-10-14T09:52:20.934Z,83.64
2022-10-14T09:53:21.015Z,82.89
2022-10-14T09:54:20.899Z,82.59
2022-10-14T09:55:20.894Z,82.28
2022-10-14T09:56:21.775Z,83.03
2022-10-14T09:57:21.140Z,83.03
2022-10-14T09:58:53.266Z,82.83
2022-10-14T09:59:20.865Z,82.73
2022-10-14T10:00:20.858Z,83.54
2022-10-14T10:01:20.849Z,83.33
2022-10-14T10:02:20.850Z,83.03
2022-10-14T10:03:20.825Z,82.62
2022-10-14T10:04:20.812Z,82.83
2022-10-14T10:05:20.806Z,82.83
2022-10-14T10:06:22.319Z,82.83
2022-10-14T10:07:21.198Z,82.73
2022-10-14T10:08:20.791Z,83.03
2022-10-14T10:09:21.745Z,82.89
2022-10-14T10:10:20.770Z,82.39
2022-10-14T10:11:20.773Z,82.04
2022-10-14T10:12:20.763Z,81.13
2022-10-14T10:13:20.765Z,80.69
2022-10-14T10:14:20.766Z,81.13
2022-10-14T10:15:21.749Z,81.68
2022-10-14T10:16:20.725Z,82.08
2022-10-14T10:17:21.087Z,82.83
2022-10-14T10:18:20.716Z,83.13
2022-10-14T10:19:20.709Z,82.42
2022-10-14T10:20:21.321Z,82.49
2022-10-14T10:21:20.687Z,82.28
2022-10-14T10:22:21.241Z,82.59
2022-10-14T10:23:21.254Z,82.49
2022-10-14T10:24:20.656Z,82.89
2022-10-14T10:25:20.654Z,82.39
2022-10-14T10:26:20.671Z,83.54
2022-10-14T10:27:21.057Z,83.33
2022-10-14T10:28:20.702Z,82.83
2022-10-14T10:29:21.620Z,82.93
2022-10-14T10:30:20.646Z,83.13
2022-10-14T10:31:22.426Z,82.42
2022-10-14T10:32:20.811Z,82.18
2022-10-14T10:33:20.674Z,81.78
2022-10-14T10:34:21.322Z,82.49
2022-10-14T10:35:20.591Z,82.18
2022-10-14T10:36:20.569Z,82.22
2022-10-14T10:37:20.951Z,82.28
2022-10-14T10:38:20.552Z,81.88
2022-10-14T10:39:20.537Z,82.18
2022-10-14T10:40:20.543Z,82.08
2022-10-14T10:41:21.324Z,82.18
2022-10-14T10:42:20.749Z,81.78
2022-10-14T10:43:20.503Z,81.88
2022-10-14T10:44:20.546Z,81.88
2022-10-14T10:45:20.548Z,81.78
2022-10-14T10:46:21.281Z,81.57
2022-10-14T10:47:20.521Z,81.57
2022-10-14T10:48:21.524Z,81.13
2022-10-14T10:49:22.380Z,80.97
2022-10-14T10:50:20.513Z,80.93
2022-10-14T10:52:26.805Z,81.03
2022-10-14T10:53:27.612Z,81.27
2022-10-14T10:54:27.614Z,81.78
2022-10-14T10:55:27.586Z,81.88
2022-10-14T10:56:27.578Z,81.78
2022-10-14T10:57:27.574Z,81.68
2022-10-14T10:58:27.570Z,81.68
2022-10-14T10:59:29.152Z,81.68
2022-10-14T11:00:27.560Z,81.34
2022-10-14T11:01:27.571Z,81.34
2022-10-14T11:02:27.557Z,80.83
2022-10-14T11:03:27.534Z,80.90
2022-10-14T11:04:31.162Z,80.59
2022-10-14T11:05:27.511Z,80.39
2022-10-14T11:06:27.515Z,80.22
2022-10-14T11:07:28.217Z,80.73
2022-10-14T11:08:27.559Z,81.17
2022-10-14T11:09:27.518Z,81.57
2022-10-14T11:10:27.483Z,81.57
2022-10-14T11:11:27.479Z,81.48
2022-10-14T11:12:27.488Z,82.49
2022-10-14T11:13:29.486Z,82.18
2022-10-14T11:14:27.452Z,82.69
2022-10-14T11:15:27.440Z,83.50
2022-10-14T11:16:27.430Z,83.74
2022-10-14T11:17:27.462Z,83.64
2022-10-14T11:18:27.418Z,83.40
2022-10-14T11:19:27.400Z,83.33
2022-10-14T11:20:27.771Z,82.89
2022-10-14T11:21:27.388Z,82.59
2022-10-14T11:22:27.390Z,82.28
2022-10-14T11:23:27.389Z,82.49
2022-10-14T11:25:33.929Z,81.78
2022-10-14T11:27:33.922Z,81.44
2022-10-14T11:28:33.936Z,81.44
2022-10-14T11:29:33.888Z,81.30
2022-10-14T11:30:33.876Z,80.45
2022-10-14T11:31:33.867Z,79.71
2022-10-14T11:32:33.864Z,77.79
2022-10-14T11:33:38.873Z,77.95
2022-10-14T11:34:34.877Z,77.95
2022-10-14T11:35:36.651Z,78.06
2022-10-14T11:36:34.933Z,77.45
2022-10-14T11:37:35.566Z,78.16
2022-10-14T11:39:35.806Z,77.21
2022-10-14T11:40:34.883Z,76.67
2022-10-14T11:41:34.870Z,76.07
2022-10-14T11:42:34.865Z,76.37
2022-10-14T11:43:34.874Z,77.11
2022-10-14T11:45:34.846Z,77.95
2022-10-14T11:46:34.840Z,78.26
2022-10-14T11:47:34.857Z,77.55
2022-10-14T11:48:34.817Z,78.26
2022-10-14T11:49:34.807Z,79.10
2022-10-14T11:50:34.829Z,79.41
2022-10-14T11:51:35.783Z,78.59
2022-10-14T11:52:35.812Z,78.50
2022-10-14T11:53:35.611Z,79.21
2022-10-14T11:54:34.779Z,79.21
2022-10-14T11:55:34.774Z,79.21
2022-10-14T11:56:34.793Z,79.50
2022-10-14T11:57:34.759Z,79.34
2022-10-14T11:58:36.560Z,79.00
2022-10-14T11:59:34.768Z,79.30
2022-10-14T12:00:34.732Z,79.64
2022-10-14T12:01:37.377Z,79.74
2022-10-14T12:02:34.784Z,79.85
2022-10-14T12:03:34.703Z,80.25
2022-10-14T12:04:34.696Z,80.25
2022-10-14T12:05:35.573Z,80.79
2022-10-14T12:06:34.676Z,80.59
2022-10-14T12:07:34.672Z,79.64
2022-10-14T12:08:35.699Z,79.04
2022-10-14T12:10:34.643Z,80.08
2022-10-14T12:11:34.643Z,80.19
2022-10-14T12:12:34.643Z,80.19
2022-10-14T12:13:34.610Z,80.45
2022-10-14T12:14:34.633Z,80.15
2022-10-14T12:15:35.568Z,80.25
2022-10-14T12:16:34.588Z,80.05
2022-10-14T12:17:34.598Z,80.25
2022-10-14T12:19:34.594Z,81.03
2022-10-14T12:20:34.563Z,81.03
2022-10-14T12:21:34.552Z,81.34
2022-10-14T12:22:34.558Z,81.64
2022-10-14T12:23:34.566Z,81.94
2022-10-14T12:24:34.544Z,82.39
2022-10-14T12:25:34.575Z,82.28
2022-10-14T12:26:34.513Z,81.84
2022-10-14T12:27:37.649Z,82.04
2022-10-14T12:28:34.515Z,81.44
2022-10-14T12:29:34.505Z,81.23
2022-10-14T12:30:34.483Z,81.13
2022-10-14T12:31:35.148Z,80.49
2022-10-14T12:32:34.476Z,79.85
2022-10-14T12:33:34.463Z,79.54
2022-10-14T12:34:34.472Z,79.61
2022-10-14T12:35:34.443Z,78.36
2022-10-14T12:36:37.461Z,77.75
2022-10-14T12:37:35.060Z,77.51
2022-10-14T12:38:35.425Z,76.77
2022-10-14T12:39:34.424Z,76.97
2022-10-14T12:40:34.404Z,75.96
2022-10-14T12:41:34.411Z,75.83
2022-10-14T12:42:34.911Z,76.27
2022-10-14T12:43:34.413Z,76.54
2022-10-14T12:44:34.393Z,76.67
2022-10-14T12:45:34.433Z,77.28
2022-10-14T12:46:34.422Z,77.31
2022-10-14T12:47:34.364Z,76.67
2022-10-14T12:48:34.346Z,77.21
2022-10-14T12:49:34.345Z,77.82
2022-10-14T12:50:34.340Z,77.92
2022-10-14T12:51:35.158Z,77.42
2022-10-14T12:52:34.318Z,77.11
2022-10-14T12:53:34.329Z,76.87
2022-10-14T12:54:34.307Z,77.21
2022-10-14T12:55:34.315Z,77.66
2022-10-14T12:56:34.287Z,78.06
2022-10-14T12:57:37.355Z,77.95
2022-10-14T12:58:36.277Z,77.92
2022-10-14T12:59:34.267Z,77.86
2022-10-14T13:00:34.263Z,77.82
2022-10-14T13:01:36.452Z,77.86
2022-10-14T13:02:34.293Z,77.45